createdAt,value
2024-04-18T00:05:17.356Z,6.47
2024-04-18T00:15:25.178Z,7.93
2024-04-18T00:25:35.249Z,8.30
2024-04-18T00:36:02.748Z,11.13
2024-04-18T00:46:27.781Z,10.20
2024-04-18T00:56:39.031Z,10.30
2024-04-18T01:07:13.326Z,10.67
2024-04-18T01:17:27.091Z,10.17
2024-04-18T01:27:34.698Z,9.50
2024-04-18T01:37:40.112Z,9.40
2024-04-18T01:47:54.558Z,9.70
2024-04-18T01:58:18.282Z,10.63
2024-04-18T02:08:33.571Z,11.10
2024-04-18T02:18:55.494Z,11.43
2024-04-18T02:29:03.363Z,12.17
2024-04-18T02:39:08.133Z,13.63
2024-04-18T02:49:15.620Z,14.57
2024-04-18T02:59:33.198Z,13.07
2024-04-18T03:10:00.818Z,14.03
2024-04-18T03:20:06.011Z,13.27
2024-04-18T03:30:34.177Z,14.70
2024-04-18T03:40:46.195Z,15.10
2024-04-18T03:50:56.844Z,17.40
2024-04-18T04:01:22.232Z,18.27
2024-04-18T04:11:30.383Z,18.33
2024-04-18T04:21:36.394Z,19.47
2024-04-18T04:31:43.900Z,21.10
2024-04-18T04:41:48.699Z,19.73
2024-04-18T04:51:56.860Z,20.93
2024-04-18T05:02:17.855Z,23.07
2024-04-18T05:12:28.457Z,21.47
2024-04-18T05:22:33.218Z,22.50
2024-04-18T05:32:40.827Z,24.00
2024-04-18T05:42:49.199Z,23.67
2024-04-18T05:52:57.146Z,24.07
2024-04-18T06:03:02.945Z,24.10
2024-04-18T06:13:11.104Z,21.30
2024-04-18T06:23:18.004Z,19.67
2024-04-18T06:33:46.497Z,17.50
2024-04-18T06:43:51.605Z,16.43
2024-04-18T06:53:59.031Z,15.63
2024-04-18T07:04:03.823Z,17.60
2024-04-18T07:14:11.868Z,16.83
2024-04-18T07:24:18.229Z,19.83
2024-04-18T07:34:25.986Z,19.33
2024-04-18T07:44:30.939Z,21.00
2024-04-18T07:54:38.842Z,19.50
2024-04-18T08:04:53.314Z,19.83
2024-04-18T08:15:10.811Z,18.33
2024-04-18T08:25:20.166Z,19.23
2024-04-18T08:35:27.842Z,19.90
2024-04-18T08:45:36.327Z,16.50
2024-04-18T08:55:48.315Z,13.83
2024-04-18T09:05:53.298Z,8.60
2024-04-18T09:16:01.196Z,5.47
2024-04-18T09:26:06.182Z,3.90
2024-04-18T09:36:16.171Z,3.70
2024-04-18T09:46:22.097Z,2.70
2024-04-18T09:56:34.343Z,2.67
2024-04-18T10:06:47.762Z,2.40
2024-04-18T10:17:26.086Z,2.17
2024-04-18T10:27:31.209Z,2.50
2024-04-18T10:37:39.520Z,1.90
2024-04-18T10:47:49.380Z,1.30
2024-04-18T10:57:57.035Z,0.97
2024-04-18T11:08:02.111Z,1.37
2024-04-18T11:18:10.075Z,0.87
2024-04-18T11:28:16.391Z,0.80
2024-04-18T11:38:24.412Z,1.13
2024-04-18T11:48:29.349Z,1.13
2024-04-18T11:58:36.934Z,0.97
2024-04-18T12:08:42.099Z,1.30
2024-04-18T12:19:08.179Z,1.00
2024-04-18T12:29:13.273Z,1.10
2024-04-18T12:39:38.987Z,1.30
2024-04-18T12:50:01.934Z,1.03
2024-04-18T13:00:10.948Z,0.80
2024-04-18T13:10:34.865Z,0.50
2024-04-18T13:21:02.519Z,0.40
2024-04-18T13:31:12.533Z,0.40
2024-04-18T13:41:28.339Z,0.60
2024-04-18T13:51:33.235Z,0.53
2024-04-18T14:01:41.061Z,0.63
2024-04-18T14:12:06.564Z,0.50
2024-04-18T14:22:20.299Z,0.40
2024-04-18T14:32:25.482Z,0.40
2024-04-18T14:42:42.726Z,0.50
2024-04-18T14:52:47.895Z,0.40
2024-04-18T15:03:10.472Z,0.50
2024-04-18T15:13:22.234Z,0.50
2024-04-18T15:23:29.502Z,0.70
2024-04-18T15:33:54.204Z,0.43
2024-04-18T15:44:21.708Z,0.30
2024-04-18T15:54:26.827Z,0.60
2024-04-18T16:04:35.379Z,0.50
2024-04-18T16:14:40.412Z,0.40
2024-04-18T16:24:49.075Z,0.40
2024-04-18T16:34:54.228Z,0.50
2024-04-18T16:45:12.220Z,0.70
2024-04-18T16:55:16.892Z,0.70
2024-04-18T17:05:25.514Z,0.60
2024-04-18T17:15:30.536Z,0.77
2024-04-18T17:25:38.042Z,0.87
2024-04-18T17:35:43.515Z,1.10
2024-04-18T17:45:54.159Z,0.85
2024-04-18T17:55:58.995Z,0.60
2024-04-18T18:06:07.099Z,0.70
2024-04-18T18:16:12.342Z,1.10
2024-04-18T18:26:20.051Z,0.80
2024-04-18T18:36:25.041Z,0.80
2024-04-18T18:46:32.733Z,0.70
2024-04-18T18:56:54.225Z,1.07
2024-04-18T19:07:10.292Z,1.00
2024-04-18T19:17:14.879Z,0.93
2024-04-18T19:27:22.856Z,0.90
2024-04-18T19:37:28.412Z,1.50
2024-04-18T19:47:35.997Z,1.43
2024-04-18T19:57:40.917Z,1.20
2024-04-18T20:07:48.526Z,1.17
2024-04-18T20:17:54.086Z,1.87
2024-04-18T20:28:01.802Z,1.60
2024-04-18T20:38:06.813Z,1.40
2024-04-18T20:48:14.374Z,2.47
2024-04-18T20:58:20.268Z,1.80
2024-04-18T21:08:28.093Z,1.90
2024-04-18T21:18:33.175Z,2.00
2024-04-18T21:28:41.398Z,1.50
2024-04-18T21:39:08.208Z,1.90
2024-04-18T21:49:16.534Z,1.80
2024-04-18T21:59:21.515Z,2.07
2024-04-18T22:09:29.192Z,1.60
2024-04-18T22:19:34.422Z,2.03
2024-04-18T22:29:42.386Z,1.60
2024-04-18T22:39:47.497Z,1.97
2024-04-18T22:49:56.748Z,1.80
2024-04-18T23:10:09.494Z,1.97
2024-04-18T23:20:14.375Z,1.53
2024-04-18T23:30:22.135Z,2.10
2024-04-18T23:40:27.063Z,1.70
2024-04-18T23:50:34.633Z,2.07
